createdAt,value
2019-03-04T00:04:38.818Z,5.87
2019-03-04T00:07:07.203Z,6.90
2019-03-04T00:09:35.600Z,6.33
2019-03-04T00:12:03.985Z,6.90
2019-03-04T00:14:32.404Z,6.63
2019-03-04T00:17:01.032Z,7.43
2019-03-04T00:19:29.412Z,5.40
2019-03-04T00:21:57.803Z,4.90
2019-03-04T00:24:26.180Z,4.90
2019-03-04T00:26:54.580Z,4.83
2019-03-04T00:29:22.961Z,5.00
2019-03-04T00:31:51.656Z,5.27
2019-03-04T00:34:20.343Z,5.90
2019-03-04T00:36:48.721Z,4.37
2019-03-04T00:39:17.407Z,5.70
2019-03-04T00:42:05.127Z,5.83
2019-03-04T00:44:33.579Z,5.00
2019-03-04T00:47:02.201Z,5.17
2019-03-04T00:49:30.594Z,5.60
2019-03-04T00:51:59.268Z,5.23
2019-03-04T00:54:27.659Z,5.53
2019-03-04T00:56:56.329Z,5.37
2019-03-04T00:59:24.724Z,5.07
2019-03-04T01:01:53.400Z,5.40
2019-03-04T01:04:21.802Z,5.30
2019-03-04T01:06:50.185Z,5.23
2019-03-04T01:09:18.562Z,5.97
2019-03-04T01:11:47.219Z,5.10
2019-03-04T01:14:15.907Z,5.20
2019-03-04T01:16:44.591Z,5.67
2019-03-04T01:19:12.972Z,5.13
2019-03-04T01:21:41.361Z,5.13
2019-03-04T01:24:10.007Z,5.10
2019-03-04T01:26:38.388Z,5.40
2019-03-04T01:29:06.789Z,4.80
2019-03-04T01:31:35.400Z,5.10
2019-03-04T01:34:04.064Z,5.00
2019-03-04T01:36:32.749Z,5.27
2019-03-04T01:39:01.135Z,5.23
2019-03-04T01:41:29.814Z,5.60
2019-03-04T01:43:58.247Z,5.30
2019-03-04T01:46:26.891Z,5.30
2019-03-04T01:48:55.575Z,5.17
2019-03-04T01:51:24.246Z,4.67
2019-03-04T01:53:52.652Z,5.00
2019-03-04T01:56:21.255Z,5.00
2019-03-04T01:58:49.635Z,4.60
2019-03-04T02:01:18.025Z,4.90
2019-03-04T02:03:46.654Z,5.10
2019-03-04T02:06:15.338Z,5.20
2019-03-04T02:08:43.729Z,5.00
2019-03-04T02:11:52.047Z,4.70
2019-03-04T02:14:20.427Z,5.20
2019-03-04T02:16:49.099Z,5.13
2019-03-04T02:19:36.823Z,5.37
2019-03-04T02:22:05.519Z,4.50
2019-03-04T02:24:34.202Z,4.77
2019-03-04T02:27:22.248Z,5.50
2019-03-04T02:29:50.626Z,4.30
2019-03-04T02:32:19.307Z,5.10
2019-03-04T02:34:47.994Z,4.90
2019-03-04T02:37:35.716Z,4.97
2019-03-04T02:40:44.269Z,5.03
2019-03-04T02:43:12.942Z,4.67
2019-03-04T02:45:41.619Z,5.33
2019-03-04T02:48:10.302Z,4.70
2019-03-04T02:50:38.686Z,5.43
2019-03-04T02:53:07.367Z,4.50
2019-03-04T02:55:36.056Z,4.67
2019-03-04T02:58:04.857Z,5.00
2019-03-04T03:00:33.527Z,4.67
2019-03-04T03:03:01.913Z,5.80
2019-03-04T03:05:30.695Z,5.23
2019-03-04T03:07:59.081Z,4.60
2019-03-04T03:10:46.812Z,5.37
2019-03-04T03:13:15.195Z,5.97
2019-03-04T03:15:43.571Z,5.30
2019-03-04T03:18:11.962Z,6.00
2019-03-04T03:20:40.353Z,5.70
2019-03-04T03:23:09.009Z,6.47
2019-03-04T03:25:37.710Z,6.40
2019-03-04T03:28:06.090Z,6.00
2019-03-04T03:30:34.486Z,7.00
2019-03-04T03:33:02.905Z,6.40
2019-03-04T03:35:31.257Z,6.63
2019-03-04T03:37:59.894Z,5.83
2019-03-04T03:40:28.285Z,6.60
2019-03-04T03:42:56.656Z,5.87
2019-03-04T03:45:25.102Z,5.50
2019-03-04T03:47:53.831Z,5.10
2019-03-04T03:50:22.503Z,5.03
2019-03-04T03:52:50.873Z,4.40
2019-03-04T03:55:19.268Z,5.13
2019-03-04T03:57:47.638Z,4.90
2019-03-04T04:00:35.689Z,4.90
2019-03-04T04:03:04.306Z,5.00
2019-03-04T04:05:33.060Z,4.83
2019-03-04T04:08:20.784Z,4.70
2019-03-04T04:10:49.166Z,4.37
2019-03-04T04:13:17.543Z,4.20
2019-03-04T04:15:46.246Z,4.90
2019-03-04T04:18:14.622Z,4.83
2019-03-04T04:20:43.003Z,4.93
2019-03-04T04:23:11.694Z,6.10
2019-03-04T04:25:40.380Z,6.10
2019-03-04T04:30:44.383Z,6.63
2019-03-04T04:33:13.009Z,5.70
2019-03-04T04:35:41.656Z,6.03
2019-03-04T04:38:10.338Z,5.70
2019-03-04T04:40:38.971Z,6.27
2019-03-04T04:43:07.610Z,5.13
2019-03-04T04:45:35.985Z,5.23
2019-03-04T04:48:04.378Z,5.93
2019-03-04T04:51:12.928Z,5.30
2019-03-04T04:53:41.305Z,5.00
2019-03-04T04:56:09.952Z,5.63
2019-03-04T04:58:38.638Z,6.00
2019-03-04T05:01:07.017Z,4.60
2019-03-04T05:03:54.797Z,4.47
2019-03-04T05:06:23.178Z,5.03
2019-03-04T05:08:51.570Z,5.10
2019-03-04T05:11:19.955Z,9.80
2019-03-04T05:13:48.675Z,6.00
2019-03-04T05:16:17.064Z,4.80
2019-03-04T05:18:45.738Z,5.30
2019-03-04T05:21:14.122Z,4.80
2019-03-04T05:24:01.857Z,5.40
2019-03-04T05:26:30.642Z,5.10
2019-03-04T05:28:59.321Z,5.27
2019-03-04T05:31:28.019Z,5.07
2019-03-04T05:33:56.815Z,4.60
2019-03-04T05:36:25.481Z,5.40
2019-03-04T05:39:13.214Z,4.87
2019-03-04T05:41:41.907Z,4.47
2019-03-04T05:44:10.585Z,4.43
2019-03-04T05:46:38.967Z,5.87
2019-03-04T05:49:07.347Z,4.60
2019-03-04T05:51:35.739Z,5.10
2019-03-04T05:54:04.511Z,4.50
2019-03-04T05:56:33.206Z,4.50
2019-03-04T05:59:01.592Z,5.40
2019-03-04T06:02:09.906Z,5.20
2019-03-04T06:04:38.350Z,4.43
2019-03-04T06:07:25.805Z,4.20
2019-03-04T06:09:54.190Z,4.77
2019-03-04T06:12:41.936Z,4.67
2019-03-04T06:15:29.657Z,5.00
2019-03-04T06:17:58.052Z,4.90
2019-03-04T06:20:26.667Z,5.50
2019-03-04T06:22:55.064Z,5.03
2019-03-04T06:26:03.348Z,4.80
2019-03-04T06:28:32.087Z,4.53
2019-03-04T06:31:00.472Z,4.87
2019-03-04T06:33:29.165Z,4.73
2019-03-04T06:35:57.857Z,5.20
2019-03-04T06:38:26.241Z,4.90
2019-03-04T06:40:54.915Z,5.43
2019-03-04T06:43:23.587Z,5.73
2019-03-04T06:45:52.224Z,5.77
2019-03-04T06:48:20.614Z,5.70
2019-03-04T06:51:28.973Z,5.20
2019-03-04T06:54:37.558Z,5.50
2019-03-04T06:57:45.917Z,5.33
2019-03-04T07:00:54.267Z,5.20
2019-03-04T07:03:22.718Z,5.00
2019-03-04T07:05:51.490Z,5.40
2019-03-04T07:09:00.084Z,4.60
2019-03-04T07:11:28.462Z,4.93
2019-03-04T07:13:56.858Z,5.27
2019-03-04T07:16:25.292Z,4.60
2019-03-04T07:18:53.742Z,4.60
2019-03-04T07:21:22.190Z,5.43
2019-03-04T07:23:50.587Z,5.20
2019-03-04T07:26:19.006Z,5.37
2019-03-04T07:28:47.404Z,5.50
2019-03-04T07:31:15.826Z,5.33
2019-03-04T07:33:44.446Z,5.50
2019-03-04T07:36:12.965Z,5.50
2019-03-04T07:39:01.154Z,4.93
2019-03-04T07:41:29.602Z,5.50
2019-03-04T07:43:58.304Z,6.10
2019-03-04T07:46:26.781Z,5.30
2019-03-04T07:48:55.138Z,5.43
2019-03-04T07:54:32.000Z,5.43
2019-03-04T07:57:00.612Z,5.33
2019-03-04T07:59:29.330Z,5.80
2019-03-04T08:01:58.015Z,5.87
2019-03-04T08:04:26.705Z,6.17
2019-03-04T08:07:35.314Z,6.27
2019-03-04T08:10:42.300Z,6.20
2019-03-04T08:13:50.874Z,5.60
2019-03-04T08:16:19.515Z,5.30
2019-03-04T08:18:47.901Z,5.90
2019-03-04T08:21:16.580Z,5.80
2019-03-04T08:23:44.962Z,4.93
2019-03-04T08:26:53.506Z,5.23
2019-03-04T08:29:21.890Z,5.17
2019-03-04T08:31:50.274Z,5.43
2019-03-04T08:34:18.670Z,5.20
2019-03-04T08:36:47.046Z,4.90
2019-03-04T08:39:15.607Z,4.30
2019-03-04T08:41:44.041Z,4.57
2019-03-04T08:44:12.442Z,4.10
2019-03-04T08:46:40.827Z,3.43
2019-03-04T08:49:09.204Z,3.90
2019-03-04T08:51:37.598Z,4.00
2019-03-04T08:54:05.976Z,3.17
2019-03-04T08:56:34.368Z,3.33
2019-03-04T08:59:02.747Z,3.30
2019-03-04T09:01:31.469Z,3.70
2019-03-04T09:04:01.318Z,3.90
2019-03-04T09:06:29.995Z,3.87
2019-03-04T09:08:58.439Z,3.30
2019-03-04T09:11:46.514Z,3.17
2019-03-04T09:14:15.148Z,3.70
2019-03-04T09:16:43.785Z,3.50
2019-03-04T09:19:12.470Z,3.17
2019-03-04T09:21:41.159Z,3.30
2019-03-04T09:24:09.553Z,3.23
2019-03-04T09:26:37.943Z,3.33
2019-03-04T09:29:06.323Z,3.50
2019-03-04T09:31:34.758Z,3.70
2019-03-04T09:34:03.095Z,3.60
2019-03-04T09:36:31.740Z,4.27
2019-03-04T09:39:00.119Z,3.87
2019-03-04T09:44:27.138Z,4.00
2019-03-04T09:46:55.765Z,4.00
2019-03-04T09:49:24.156Z,3.67
2019-03-04T09:51:52.830Z,3.50
2019-03-04T09:54:21.518Z,3.40
2019-03-04T09:56:50.150Z,3.60
2019-03-04T09:59:18.540Z,3.33
2019-03-04T10:02:26.823Z,3.67
2019-03-04T10:05:35.180Z,3.30
2019-03-04T10:08:43.490Z,3.57
2019-03-04T10:11:52.010Z,3.23
2019-03-04T10:15:07.952Z,3.63
2019-03-04T10:18:07.915Z,3.93
2019-03-04T10:21:14.896Z,4.67
2019-03-04T10:24:22.106Z,3.93
2019-03-04T10:27:30.403Z,4.47
2019-03-04T10:30:37.628Z,3.90
2019-03-04T10:33:45.979Z,3.20
2019-03-04T10:36:54.279Z,3.90
2019-03-04T10:40:01.507Z,3.50
2019-03-04T10:43:08.474Z,4.10
2019-03-04T10:46:16.768Z,4.47
2019-03-04T10:48:45.442Z,3.60
2019-03-04T10:51:13.821Z,4.50
2019-03-04T10:53:42.214Z,4.40
2019-03-04T10:56:10.881Z,4.20
2019-03-04T10:58:39.571Z,4.33
2019-03-04T11:01:07.963Z,4.40
2019-03-04T11:03:36.634Z,4.03
2019-03-04T11:06:05.269Z,3.80
2019-03-04T11:08:33.649Z,3.77
2019-03-04T11:11:02.283Z,3.37
2019-03-04T11:13:30.675Z,3.57
2019-03-04T11:15:59.291Z,4.20
2019-03-04T11:18:27.929Z,3.70
2019-03-04T11:20:56.615Z,4.07
2019-03-04T11:26:01.055Z,4.27
2019-03-04T11:28:29.518Z,4.20
2019-03-04T11:30:57.902Z,4.33
2019-03-04T11:33:26.599Z,4.40
2019-03-04T11:35:54.990Z,3.40
2019-03-04T11:38:44.151Z,3.93
2019-03-04T11:41:32.183Z,3.70
2019-03-04T11:44:00.869Z,4.20
2019-03-04T11:46:29.587Z,4.20
2019-03-04T11:48:57.939Z,4.07
2019-03-04T11:51:26.335Z,4.17
2019-03-04T11:53:55.102Z,3.97
2019-03-04T11:56:23.553Z,4.10
2019-03-04T11:58:51.973Z,3.87
2019-03-04T12:04:09.579Z,3.90
2019-03-04T12:06:37.962Z,3.40
2019-03-04T12:09:46.261Z,4.20
2019-03-04T12:12:14.996Z,3.93
2019-03-04T12:14:43.675Z,4.23
2019-03-04T12:17:12.056Z,3.80
2019-03-04T12:19:40.788Z,4.33
2019-03-04T12:22:09.425Z,4.03
2019-03-04T12:24:38.046Z,4.70
2019-03-04T12:27:06.494Z,4.70
2019-03-04T12:29:35.115Z,4.60
2019-03-04T12:34:39.098Z,4.60
2019-03-04T12:37:07.550Z,3.60
2019-03-04T12:39:36.266Z,3.80
2019-03-04T12:42:04.718Z,4.07
2019-03-04T12:44:33.117Z,5.10
2019-03-04T12:47:01.495Z,3.80
2019-03-04T12:49:29.905Z,3.60
2019-03-04T12:51:58.571Z,4.67
2019-03-04T12:54:27.253Z,3.73
2019-03-04T12:56:55.943Z,4.40
2019-03-04T12:59:24.627Z,3.90
2019-03-04T13:01:53.023Z,5.13
2019-03-04T13:04:21.407Z,4.30
2019-03-04T13:06:49.794Z,5.17
2019-03-04T13:09:18.260Z,4.90
2019-03-04T13:11:46.934Z,4.93
2019-03-04T13:14:15.643Z,5.03
2019-03-04T13:16:44.040Z,4.53
2019-03-04T13:19:12.682Z,4.53
2019-03-04T13:21:41.065Z,4.40
2019-03-04T13:24:09.450Z,4.37
2019-03-04T13:26:38.138Z,4.67
2019-03-04T13:29:06.596Z,4.53
2019-03-04T13:31:35.293Z,4.03
2019-03-04T13:34:04.081Z,4.30
2019-03-04T13:36:32.474Z,3.90
2019-03-04T13:39:00.860Z,4.40
2019-03-04T13:41:29.529Z,4.73
2019-03-04T13:43:57.910Z,4.43
2019-03-04T13:46:26.297Z,4.90
2019-03-04T13:48:55.744Z,4.30
2019-03-04T13:51:25.143Z,4.20
2019-03-04T13:53:53.530Z,4.07
2019-03-04T13:56:21.913Z,4.00
2019-03-04T13:58:50.310Z,4.00
2019-03-04T14:01:38.379Z,3.83
2019-03-04T14:04:26.415Z,5.30
2019-03-04T14:06:54.796Z,3.93
2019-03-04T14:11:58.431Z,4.30
2019-03-04T14:14:27.085Z,4.13
2019-03-04T14:16:55.774Z,3.60
2019-03-04T14:19:24.458Z,3.73
2019-03-04T14:21:52.854Z,4.10
2019-03-04T14:24:21.241Z,4.47
2019-03-04T14:26:49.638Z,3.53
2019-03-04T14:29:18.021Z,4.30
2019-03-04T14:31:46.454Z,4.17
2019-03-04T14:34:14.845Z,3.63
2019-03-04T14:37:03.376Z,3.63
2019-03-04T14:39:32.691Z,3.97
2019-03-04T14:42:01.375Z,3.67
2019-03-04T14:44:49.346Z,3.77
2019-03-04T14:47:17.994Z,3.57
2019-03-04T14:49:46.380Z,3.60
2019-03-04T14:52:14.837Z,3.73
2019-03-04T14:54:43.218Z,3.80
2019-03-04T14:57:11.608Z,3.97
2019-03-04T14:59:40.234Z,3.50
2019-03-04T15:02:08.988Z,3.70
2019-03-04T15:04:37.372Z,3.90
2019-03-04T15:07:05.755Z,3.83
2019-03-04T15:09:34.147Z,4.13
2019-03-04T15:12:02.585Z,4.30
2019-03-04T15:14:30.972Z,3.70
2019-03-04T15:17:03.345Z,3.93
2019-03-04T15:19:29.475Z,3.90
2019-03-04T15:22:05.061Z,3.90
2019-03-04T15:24:33.690Z,4.47
2019-03-04T15:27:02.137Z,4.13
2019-03-04T15:29:30.771Z,3.73
2019-03-04T15:31:59.461Z,3.63
2019-03-04T15:34:27.843Z,3.67
2019-03-04T15:36:56.247Z,4.30
2019-03-04T15:39:24.906Z,3.83
2019-03-04T15:41:53.307Z,3.57
2019-03-04T15:44:21.679Z,3.93
2019-03-04T15:46:50.352Z,4.23
2019-03-04T15:49:19.035Z,4.37
2019-03-04T15:51:47.555Z,4.27
2019-03-04T15:54:16.203Z,4.00
2019-03-04T15:56:44.587Z,4.10
2019-03-04T15:59:13.374Z,4.70
2019-03-04T16:01:42.159Z,4.83
2019-03-04T16:04:10.637Z,3.70
2019-03-04T16:06:39.325Z,3.60
2019-03-04T16:09:47.632Z,3.72
2019-03-04T16:12:16.159Z,3.15
2019-03-04T16:14:44.702Z,3.55
2019-03-04T16:17:13.098Z,3.30
2019-03-04T16:19:41.770Z,3.25
2019-03-04T16:22:10.455Z,3.55
2019-03-04T16:24:38.845Z,3.27
2019-03-04T16:27:47.170Z,3.20
2019-03-04T16:30:55.487Z,6.03
2019-03-04T16:34:03.788Z,3.35
2019-03-04T16:36:32.191Z,3.70
2019-03-04T16:39:00.586Z,5.90
2019-03-04T16:41:29.328Z,3.27
2019-03-04T16:43:57.706Z,3.80
2019-03-04T16:46:26.489Z,2.80
2019-03-04T16:48:55.127Z,3.30
2019-03-04T16:51:23.765Z,2.67
2019-03-04T16:53:52.446Z,3.10
2019-03-04T16:56:20.832Z,3.42
2019-03-04T16:58:49.234Z,4.17
2019-03-04T17:04:25.966Z,3.35
2019-03-04T17:06:54.353Z,3.62
2019-03-04T17:09:22.830Z,3.40
2019-03-04T17:11:51.237Z,3.35
2019-03-04T17:14:19.926Z,3.15
2019-03-04T17:16:48.329Z,2.80
2019-03-04T17:19:16.716Z,3.25
2019-03-04T17:21:45.115Z,3.35
2019-03-04T17:24:13.560Z,2.85
2019-03-04T17:27:01.296Z,3.50
2019-03-04T17:29:29.963Z,3.45
2019-03-04T17:31:58.764Z,3.35
2019-03-04T17:34:27.440Z,3.20
2019-03-04T17:36:55.831Z,3.00
2019-03-04T17:39:24.304Z,2.87
2019-03-04T17:45:01.097Z,2.90
2019-03-04T17:47:29.482Z,2.72
2019-03-04T17:49:57.879Z,2.80
2019-03-04T17:52:26.271Z,2.75
2019-03-04T17:54:54.922Z,2.70
2019-03-04T17:57:23.600Z,3.00
2019-03-04T18:00:31.951Z,2.70
2019-03-04T18:03:00.420Z,2.80
2019-03-04T18:05:29.082Z,3.00
2019-03-04T18:07:57.766Z,3.12
2019-03-04T18:10:26.241Z,2.95
2019-03-04T18:13:34.553Z,3.20
2019-03-04T18:16:02.948Z,3.40
2019-03-04T18:18:31.625Z,3.17
2019-03-04T18:21:00.026Z,3.20
2019-03-04T18:23:28.414Z,3.92
2019-03-04T18:26:36.964Z,2.98
2019-03-04T18:29:45.266Z,3.12
2019-03-04T18:32:52.307Z,3.33
2019-03-04T18:36:00.903Z,3.90
2019-03-04T18:39:09.457Z,3.25
2019-03-04T18:42:16.695Z,3.67
2019-03-04T18:45:23.667Z,3.70
2019-03-04T18:48:32.275Z,4.08
2019-03-04T18:51:00.663Z,3.87
2019-03-04T18:53:29.069Z,3.35
2019-03-04T18:55:57.791Z,3.65
2019-03-04T18:58:26.473Z,3.80
2019-03-04T19:00:55.265Z,3.50
2019-03-04T19:03:23.964Z,4.03
2019-03-04T19:05:52.442Z,4.70
2019-03-04T19:08:21.129Z,3.50
2019-03-04T19:10:49.519Z,4.00
2019-03-04T19:13:18.181Z,4.20
2019-03-04T19:15:46.909Z,4.10
2019-03-04T19:18:15.431Z,4.10
2019-03-04T19:20:43.763Z,3.60
2019-03-04T19:23:12.162Z,4.10
2019-03-04T19:25:40.894Z,3.90
2019-03-04T19:28:21.815Z,4.20
2019-03-04T19:30:50.554Z,4.60
2019-03-04T19:33:18.958Z,4.33
2019-03-04T19:35:47.352Z,4.42
2019-03-04T19:38:35.334Z,4.75
2019-03-04T19:44:11.874Z,4.65
2019-03-04T19:46:40.526Z,5.00
2019-03-04T19:49:09.219Z,4.20
2019-03-04T19:51:38.002Z,4.50
2019-03-04T19:57:14.811Z,5.05
2019-03-04T19:59:43.200Z,5.17
2019-03-04T20:02:11.623Z,5.08
2019-03-04T20:04:40.014Z,4.75
2019-03-04T20:07:48.330Z,5.05
2019-03-04T20:10:56.611Z,4.60
2019-03-04T20:13:25.319Z,4.60
2019-03-04T20:15:54.038Z,6.15
2019-03-04T20:18:22.721Z,5.00
2019-03-04T20:20:51.125Z,4.80
2019-03-04T20:23:19.786Z,4.60
2019-03-04T20:25:48.189Z,3.98
2019-03-04T20:28:16.854Z,3.80
2019-03-04T20:30:45.249Z,3.80
2019-03-04T20:33:13.913Z,3.80
2019-03-04T20:35:42.558Z,4.60
2019-03-04T20:38:50.913Z,5.17
2019-03-04T20:41:19.310Z,4.33
2019-03-04T20:43:47.699Z,4.20
2019-03-04T20:46:16.148Z,3.83
2019-03-04T20:48:44.843Z,3.77
2019-03-04T20:51:13.395Z,4.00
2019-03-04T20:53:42.023Z,3.50
2019-03-04T20:56:10.798Z,3.40
2019-03-04T20:58:39.201Z,4.00
2019-03-04T21:01:08.068Z,3.80
2019-03-04T21:03:38.545Z,4.03
2019-03-04T21:06:07.078Z,4.15
2019-03-04T21:08:35.763Z,4.28
2019-03-04T21:11:44.309Z,4.50
2019-03-04T21:14:12.805Z,4.05
2019-03-04T21:16:41.447Z,3.80
2019-03-04T21:19:09.832Z,4.25
2019-03-04T21:21:38.615Z,3.80
2019-03-04T21:24:07.151Z,3.90
2019-03-04T21:26:35.775Z,5.28
2019-03-04T21:29:44.151Z,5.25
2019-03-04T21:32:52.703Z,3.77
2019-03-04T21:35:59.931Z,4.80
2019-03-04T21:38:28.718Z,3.40
2019-03-04T21:41:36.994Z,4.45
2019-03-04T21:44:44.220Z,3.45
2019-03-04T21:47:51.191Z,4.08
2019-03-04T21:50:59.555Z,3.90
2019-03-04T21:53:48.451Z,3.33
2019-03-04T21:56:55.697Z,3.67
2019-03-04T21:59:24.335Z,4.00
2019-03-04T22:02:13.815Z,3.47
2019-03-04T22:04:42.701Z,3.92
2019-03-04T22:07:31.715Z,4.05
2019-03-04T22:10:00.607Z,4.00
2019-03-04T22:12:29.098Z,3.90
2019-03-04T22:14:57.576Z,3.87
2019-03-04T22:17:26.010Z,4.00
2019-03-04T22:19:54.698Z,3.50
2019-03-04T22:22:23.337Z,3.80
2019-03-04T22:24:52.054Z,3.30
2019-03-04T22:27:20.451Z,3.67
2019-03-04T22:29:48.838Z,4.45
2019-03-04T22:32:17.367Z,3.90
2019-03-04T22:34:46.081Z,3.75
2019-03-04T22:37:14.471Z,3.67
2019-03-04T22:40:02.221Z,3.70
2019-03-04T22:42:30.905Z,4.45
2019-03-04T22:44:59.285Z,4.08
2019-03-04T22:47:27.954Z,4.30
2019-03-04T22:49:56.344Z,3.87
2019-03-04T22:52:25.007Z,4.55
2019-03-04T22:54:53.693Z,3.90
2019-03-04T22:57:22.090Z,4.00
2019-03-04T22:59:50.523Z,4.40
2019-03-04T23:02:59.046Z,4.00
2019-03-04T23:05:27.424Z,3.60
2019-03-04T23:07:55.810Z,4.33
2019-03-04T23:10:24.216Z,4.67
2019-03-04T23:13:32.775Z,4.00
2019-03-04T23:16:41.310Z,4.55
2019-03-04T23:19:09.700Z,3.80
2019-03-04T23:21:38.244Z,4.70
2019-03-04T23:24:06.566Z,4.00
2019-03-04T23:26:34.971Z,4.40
2019-03-04T23:29:03.363Z,5.00
2019-03-04T23:31:32.035Z,3.87
2019-03-04T23:34:00.723Z,3.87
2019-03-04T23:36:29.403Z,3.72
2019-03-04T23:38:58.090Z,3.87
2019-03-04T23:41:26.795Z,4.35
2019-03-04T23:43:55.195Z,3.42
2019-03-04T23:46:23.582Z,3.33
2019-03-04T23:48:52.326Z,3.92
2019-03-04T23:51:20.718Z,3.95
2019-03-04T23:53:49.123Z,3.90
2019-03-04T23:56:17.585Z,4.42
2019-03-04T23:58:45.969Z,4.30
